This is the latest recevied weather packets stored in our database for station/object YB3RDW-13. If no packets are shown the sender has not sent any weather packets the latest 10 day(s).
| Time | Temp. | Humidity | Pressure | Rain* | Wind** | Luminosity | Snow |
|---|---|---|---|---|---|---|---|
| 1777345018 | 31.11° C | 73% | 1013 hPa | 0 mm | - | 240 W/m² | - |
| 1777344717 | 31.67° C | 74% | 1012 hPa | 0 mm | - | 442 W/m² | - |
| 1777344421 | 31.67° C | 74% | 1013 hPa | 0 mm | - | 580 W/m² | - |
| 1777344118 | 31.11° C | 76% | 1013 hPa | 0 mm | - | 605 W/m² | - |
| 1777343818 | 31.11° C | 76% | 1013 hPa | 0 mm | - | 266 W/m² | - |
| 1777343517 | 30.56° C | 78% | 1013 hPa | 0 mm | - | 426 W/m² | - |
| 1777343218 | 31.11° C | 77% | 1013 hPa | 0 mm | - | 269 W/m² | - |
| 1777342918 | 31.67° C | 76% | 1013 hPa | 0 mm | - | 280 W/m² | - |
| 1777342618 | 31.67° C | 76% | 1013 hPa | 0 mm | - | 363 W/m² | - |
| 1777342318 | 31.11° C | 78% | 1013 hPa | 0 mm | - | 388 W/m² | - |
| 1777342018 | 30.56° C | 79% | 1013 hPa | 0 mm | - | 384 W/m² | - |
| 1777341717 | 31.11° C | 77% | 1013 hPa | 0 mm | - | 402 W/m² | - |
| 1777341417 | 31.11° C | 77% | 1013 hPa | 0 mm | - | 428 W/m² | - |
| 1777341118 | 31.11° C | 77% | 1013 hPa | 0 mm | - | 472 W/m² | - |
| 1777340817 | 30.56° C | 81% | 1012 hPa | 0 mm | - | 490 W/m² | - |
| 1777340518 | 30° C | 82% | 1013 hPa | 0 mm | - | 445 W/m² | - |
| 1777340218 | 30° C | 82% | 1013 hPa | 0 mm | - | 316 W/m² | - |
| 1777339918 | 30° C | 83% | 1013 hPa | 0 mm | - | 410 W/m² | - |
| 1777339618 | 30° C | 83% | 1013 hPa | 0 mm | - | 382 W/m² | - |
| 1777339320 | 30° C | 84% | 1013 hPa | 0 mm | - | 388 W/m² | - |
| 1777339018 | 29.44° C | 85% | 1013 hPa | 0 mm | - | 277 W/m² | - |
| 1777338721 | 29.44° C | 85% | 1013 hPa | 0 mm | - | 316 W/m² | - |
| 1777338418 | 28.89° C | 85% | 1013 hPa | 0 mm | - | 315 W/m² | - |
| 1777338119 | 28.89° C | 86% | 1013 hPa | 0 mm | - | 323 W/m² | - |
| 1777337820 | 28.89° C | 87% | 1013 hPa | 0 mm | - | 312 W/m² | - |
* Rain latest hour (hover to see other rain measurements)
** Current wind speed in m/s (hover to see current wind gust speed)